sensor_id;sensor_type;location;lat;lon;timestamp;P1;durP1;ratioP1;P2;durP2;ratioP2
51594;SDS011;37677;53.254;6.594;2023-04-03T00:01:55;5.38;;;2.17;;
51594;SDS011;37677;53.254;6.594;2023-04-03T00:04:21;4.05;;;2.08;;
51594;SDS011;37677;53.254;6.594;2023-04-03T00:06:47;4.40;;;2.00;;
51594;SDS011;37677;53.254;6.594;2023-04-03T00:09:12;5.10;;;2.13;;
51594;SDS011;37677;53.254;6.594;2023-04-03T00:11:38;4.22;;;1.77;;
51594;SDS011;37677;53.254;6.594;2023-04-03T00:14:04;4.75;;;2.00;;
51594;SDS011;37677;53.254;6.594;2023-04-03T00:16:29;2.97;;;1.83;;
51594;SDS011;37677;53.254;6.594;2023-04-03T00:18:55;3.03;;;1.67;;
51594;SDS011;37677;53.254;6.594;2023-04-03T00:21:21;4.57;;;1.65;;
51594;SDS011;37677;53.254;6.594;2023-04-03T00:23:46;4.43;;;1.80;;
51594;SDS011;37677;53.254;6.594;2023-04-03T00:26:12;4.28;;;1.98;;
51594;SDS011;37677;53.254;6.594;2023-04-03T00:28:38;4.15;;;1.70;;
51594;SDS011;37677;53.254;6.594;2023-04-03T00:31:03;3.67;;;1.60;;
51594;SDS011;37677;53.254;6.594;2023-04-03T00:33:29;3.80;;;1.77;;
51594;SDS011;37677;53.254;6.594;2023-04-03T00:35:55;6.07;;;1.95;;
51594;SDS011;37677;53.254;6.594;2023-04-03T00:38:21;3.28;;;1.83;;
51594;SDS011;37677;53.254;6.594;2023-04-03T00:40:47;5.22;;;1.90;;
51594;SDS011;37677;53.254;6.594;2023-04-03T00:43:14;4.93;;;2.10;;
51594;SDS011;37677;53.254;6.594;2023-04-03T00:45:41;8.52;;;2.22;;
51594;SDS011;37677;53.254;6.594;2023-04-03T00:48:10;6.28;;;2.20;;
51594;SDS011;37677;53.254;6.594;2023-04-03T00:50:38;4.05;;;2.00;;
51594;SDS011;37677;53.254;6.594;2023-04-03T00:53:06;4.15;;;1.63;;
51594;SDS011;37677;53.254;6.594;2023-04-03T00:55:35;5.38;;;2.08;;
51594;SDS011;37677;53.254;6.594;2023-04-03T00:58:03;4.72;;;2.03;;
51594;SDS011;37677;53.254;6.594;2023-04-03T01:00:32;5.10;;;1.92;;
51594;SDS011;37677;53.254;6.594;2023-04-03T01:02:58;4.72;;;1.73;;
51594;SDS011;37677;53.254;6.594;2023-04-03T01:05:23;4.35;;;2.13;;
51594;SDS011;37677;53.254;6.594;2023-04-03T01:07:49;5.88;;;1.90;;
51594;SDS011;37677;53.254;6.594;2023-04-03T01:10:17;6.78;;;2.08;;
51594;SDS011;37677;53.254;6.594;2023-04-03T01:12:46;6.75;;;1.80;;
51594;SDS011;37677;53.254;6.594;2023-04-03T01:15:15;5.18;;;1.83;;
51594;SDS011;37677;53.254;6.594;2023-04-03T01:17:44;6.65;;;2.20;;
51594;SDS011;37677;53.254;6.594;2023-04-03T01:20:22;8.25;;;2.00;;
51594;SDS011;37677;53.254;6.594;2023-04-03T01:22:59;6.38;;;1.90;;
51594;SDS011;37677;53.254;6.594;2023-04-03T01:28:03;5.07;;;2.20;;
51594;SDS011;37677;53.254;6.594;2023-04-03T01:30:31;5.80;;;2.22;;
51594;SDS011;37677;53.254;6.594;2023-04-03T01:33:00;6.43;;;2.15;;
51594;SDS011;37677;53.254;6.594;2023-04-03T01:35:26;6.82;;;2.20;;
51594;SDS011;37677;53.254;6.594;2023-04-03T01:37:51;7.25;;;2.88;;
51594;SDS011;37677;53.254;6.594;2023-04-03T01:40:18;10.52;;;2.13;;
51594;SDS011;37677;53.254;6.594;2023-04-03T01:42:44;4.80;;;2.05;;
51594;SDS011;37677;53.254;6.594;2023-04-03T01:45:10;6.80;;;2.30;;
51594;SDS011;37677;53.254;6.594;2023-04-03T01:47:36;7.28;;;2.58;;
51594;SDS011;37677;53.254;6.594;2023-04-03T01:50:02;5.63;;;2.20;;
51594;SDS011;37677;53.254;6.594;2023-04-03T01:52:28;6.68;;;2.53;;
51594;SDS011;37677;53.254;6.594;2023-04-03T01:54:55;9.70;;;2.20;;
51594;SDS011;37677;53.254;6.594;2023-04-03T01:57:20;9.90;;;2.47;;
51594;SDS011;37677;53.254;6.594;2023-04-03T01:59:46;8.60;;;2.35;;
51594;SDS011;37677;53.254;6.594;2023-04-03T02:02:12;5.75;;;2.22;;
51594;SDS011;37677;53.254;6.594;2023-04-03T02:04:39;6.93;;;2.35;;
51594;SDS011;37677;53.254;6.594;2023-04-03T02:07:05;6.60;;;2.28;;
51594;SDS011;37677;53.254;6.594;2023-04-03T02:09:32;7.22;;;2.83;;
51594;SDS011;37677;53.254;6.594;2023-04-03T02:11:58;8.13;;;2.35;;
51594;SDS011;37677;53.254;6.594;2023-04-03T02:14:25;8.20;;;2.45;;
51594;SDS011;37677;53.254;6.594;2023-04-03T02:16:52;9.10;;;2.85;;
51594;SDS011;37677;53.254;6.594;2023-04-03T02:19:18;8.93;;;2.53;;
51594;SDS011;37677;53.254;6.594;2023-04-03T02:21:44;5.80;;;2.20;;
51594;SDS011;37677;53.254;6.594;2023-04-03T02:24:10;6.03;;;2.65;;
51594;SDS011;37677;53.254;6.594;2023-04-03T02:26:36;8.45;;;2.55;;
51594;SDS011;37677;53.254;6.594;2023-04-03T02:29:01;9.27;;;2.80;;
51594;SDS011;37677;53.254;6.594;2023-04-03T02:31:27;7.90;;;2.25;;
51594;SDS011;37677;53.254;6.594;2023-04-03T02:33:53;7.50;;;2.47;;
51594;SDS011;37677;53.254;6.594;2023-04-03T02:36:19;6.70;;;2.50;;
51594;SDS011;37677;53.254;6.594;2023-04-03T02:38:44;4.75;;;2.22;;
51594;SDS011;37677;53.254;6.594;2023-04-03T02:41:11;5.25;;;2.38;;
51594;SDS011;37677;53.254;6.594;2023-04-03T02:43:38;9.70;;;3.08;;
51594;SDS011;37677;53.254;6.594;2023-04-03T02:46:04;9.70;;;2.80;;
51594;SDS011;37677;53.254;6.594;2023-04-03T02:48:30;6.32;;;2.58;;
51594;SDS011;37677;53.254;6.594;2023-04-03T02:50:56;10.23;;;2.75;;
51594;SDS011;37677;53.254;6.594;2023-04-03T02:53:22;8.57;;;2.60;;
51594;SDS011;37677;53.254;6.594;2023-04-03T02:55:48;6.90;;;2.97;;
51594;SDS011;37677;53.254;6.594;2023-04-03T02:58:14;7.57;;;2.78;;
51594;SDS011;37677;53.254;6.594;2023-04-03T03:00:41;6.60;;;2.40;;
51594;SDS011;37677;53.254;6.594;2023-04-03T03:03:07;8.52;;;2.92;;
51594;SDS011;37677;53.254;6.594;2023-04-03T03:05:33;8.68;;;2.70;;
51594;SDS011;37677;53.254;6.594;2023-04-03T03:07:58;8.27;;;3.10;;
51594;SDS011;37677;53.254;6.594;2023-04-03T03:10:24;7.78;;;3.08;;
51594;SDS011;37677;53.254;6.594;2023-04-03T03:12:50;6.43;;;2.70;;
51594;SDS011;37677;53.254;6.594;2023-04-03T03:15:16;5.88;;;2.70;;
51594;SDS011;37677;53.254;6.594;2023-04-03T03:17:42;7.88;;;2.75;;
51594;SDS011;37677;53.254;6.594;2023-04-03T03:20:09;8.43;;;2.58;;
51594;SDS011;37677;53.254;6.594;2023-04-03T03:22:35;7.60;;;2.90;;
51594;SDS011;37677;53.254;6.594;2023-04-03T03:25:01;5.05;;;2.40;;
51594;SDS011;37677;53.254;6.594;2023-04-03T03:27:28;9.57;;;3.03;;
51594;SDS011;37677;53.254;6.594;2023-04-03T03:29:53;8.57;;;3.03;;
51594;SDS011;37677;53.254;6.594;2023-04-03T03:32:19;6.60;;;2.92;;
51594;SDS011;37677;53.254;6.594;2023-04-03T03:34:45;7.20;;;2.50;;
51594;SDS011;37677;53.254;6.594;2023-04-03T03:37:11;8.82;;;2.90;;
51594;SDS011;37677;53.254;6.594;2023-04-03T03:39:37;8.48;;;2.75;;
51594;SDS011;37677;53.254;6.594;2023-04-03T03:42:03;7.35;;;2.97;;
51594;SDS011;37677;53.254;6.594;2023-04-03T03:44:29;7.13;;;2.92;;
51594;SDS011;37677;53.254;6.594;2023-04-03T03:46:55;9.57;;;2.50;;
51594;SDS011;37677;53.254;6.594;2023-04-03T03:49:21;11.25;;;3.03;;
51594;SDS011;37677;53.254;6.594;2023-04-03T03:51:47;12.27;;;3.10;;
51594;SDS011;37677;53.254;6.594;2023-04-03T03:54:13;9.65;;;2.90;;
51594;SDS011;37677;53.254;6.594;2023-04-03T03:56:39;6.70;;;2.75;;
51594;SDS011;37677;53.254;6.594;2023-04-03T03:59:05;7.63;;;2.90;;
51594;SDS011;37677;53.254;6.594;2023-04-03T04:01:32;8.25;;;3.08;;
51594;SDS011;37677;53.254;6.594;2023-04-03T04:03:58;9.43;;;3.45;;
51594;SDS011;37677;53.254;6.594;2023-04-03T04:06:23;7.47;;;3.58;;
51594;SDS011;37677;53.254;6.594;2023-04-03T04:08:50;8.85;;;3.72;;
51594;SDS011;37677;53.254;6.594;2023-04-03T04:11:16;7.53;;;3.00;;
51594;SDS011;37677;53.254;6.594;2023-04-03T04:13:42;10.90;;;2.97;;
51594;SDS011;37677;53.254;6.594;2023-04-03T04:16:08;8.02;;;3.40;;
51594;SDS011;37677;53.254;6.594;2023-04-03T04:18:34;8.75;;;2.85;;
51594;SDS011;37677;53.254;6.594;2023-04-03T04:21:01;7.15;;;3.13;;
51594;SDS011;37677;53.254;6.594;2023-04-03T04:23:26;7.38;;;3.33;;
51594;SDS011;37677;53.254;6.594;2023-04-03T04:25:52;8.55;;;3.03;;
51594;SDS011;37677;53.254;6.594;2023-04-03T04:28:18;13.35;;;3.45;;
51594;SDS011;37677;53.254;6.594;2023-04-03T04:30:44;8.95;;;3.50;;
51594;SDS011;37677;53.254;6.594;2023-04-03T04:33:10;7.63;;;3.20;;
51594;SDS011;37677;53.254;6.594;2023-04-03T04:35:36;9.23;;;3.47;;
51594;SDS011;37677;53.254;6.594;2023-04-03T04:38:02;10.80;;;3.42;;
51594;SDS011;37677;53.254;6.594;2023-04-03T04:40:28;7.85;;;2.88;;
51594;SDS011;37677;53.254;6.594;2023-04-03T04:42:54;9.57;;;3.40;;
51594;SDS011;37677;53.254;6.594;2023-04-03T04:45:20;10.57;;;3.80;;
51594;SDS011;37677;53.254;6.594;2023-04-03T04:47:45;9.45;;;3.97;;
51594;SDS011;37677;53.254;6.594;2023-04-03T04:50:11;10.77;;;4.30;;
51594;SDS011;37677;53.254;6.594;2023-04-03T04:52:37;7.88;;;3.75;;
51594;SDS011;37677;53.254;6.594;2023-04-03T04:55:03;7.18;;;3.63;;
51594;SDS011;37677;53.254;6.594;2023-04-03T04:57:30;10.60;;;3.78;;
51594;SDS011;37677;53.254;6.594;2023-04-03T04:59:55;10.50;;;3.63;;
51594;SDS011;37677;53.254;6.594;2023-04-03T05:02:21;11.07;;;4.20;;
51594;SDS011;37677;53.254;6.594;2023-04-03T05:04:47;10.85;;;4.03;;
51594;SDS011;37677;53.254;6.594;2023-04-03T05:07:15;10.15;;;3.55;;
51594;SDS011;37677;53.254;6.594;2023-04-03T05:09:41;10.73;;;3.65;;
51594;SDS011;37677;53.254;6.594;2023-04-03T05:12:07;7.70;;;3.03;;
51594;SDS011;37677;53.254;6.594;2023-04-03T05:14:33;6.07;;;3.08;;
51594;SDS011;37677;53.254;6.594;2023-04-03T05:16:59;12.98;;;3.75;;
51594;SDS011;37677;53.254;6.594;2023-04-03T05:19:25;7.57;;;3.50;;
51594;SDS011;37677;53.254;6.594;2023-04-03T05:21:51;11.43;;;3.25;;
51594;SDS011;37677;53.254;6.594;2023-04-03T05:24:17;10.13;;;3.25;;
51594;SDS011;37677;53.254;6.594;2023-04-03T05:26:43;8.15;;;3.35;;
51594;SDS011;37677;53.254;6.594;2023-04-03T05:29:09;8.82;;;3.60;;
51594;SDS011;37677;53.254;6.594;2023-04-03T05:31:35;9.43;;;3.47;;
51594;SDS011;37677;53.254;6.594;2023-04-03T05:34:00;9.95;;;3.80;;
51594;SDS011;37677;53.254;6.594;2023-04-03T05:36:26;8.88;;;4.18;;
51594;SDS011;37677;53.254;6.594;2023-04-03T05:38:52;10.90;;;3.20;;
51594;SDS011;37677;53.254;6.594;2023-04-03T05:41:18;12.10;;;3.83;;
51594;SDS011;37677;53.254;6.594;2023-04-03T05:43:45;11.15;;;3.83;;
51594;SDS011;37677;53.254;6.594;2023-04-03T05:46:12;13.20;;;4.70;;
51594;SDS011;37677;53.254;6.594;2023-04-03T05:48:39;8.48;;;3.47;;
51594;SDS011;37677;53.254;6.594;2023-04-03T05:51:06;11.57;;;4.30;;
51594;SDS011;37677;53.254;6.594;2023-04-03T05:53:33;8.57;;;3.53;;
51594;SDS011;37677;53.254;6.594;2023-04-03T05:56:02;9.85;;;3.53;;
51594;SDS011;37677;53.254;6.594;2023-04-03T05:58:28;9.80;;;3.83;;
51594;SDS011;37677;53.254;6.594;2023-04-03T06:00:54;8.30;;;3.40;;
51594;SDS011;37677;53.254;6.594;2023-04-03T06:03:20;12.32;;;3.85;;
51594;SDS011;37677;53.254;6.594;2023-04-03T06:05:46;9.40;;;3.92;;
51594;SDS011;37677;53.254;6.594;2023-04-03T06:08:12;8.70;;;3.83;;
51594;SDS011;37677;53.254;6.594;2023-04-03T06:10:39;9.77;;;3.65;;
51594;SDS011;37677;53.254;6.594;2023-04-03T06:13:05;13.27;;;3.85;;
51594;SDS011;37677;53.254;6.594;2023-04-03T06:15:32;9.30;;;3.63;;
51594;SDS011;37677;53.254;6.594;2023-04-03T06:17:58;11.88;;;3.22;;
51594;SDS011;37677;53.254;6.594;2023-04-03T06:20:25;8.20;;;3.30;;
51594;SDS011;37677;53.254;6.594;2023-04-03T06:22:51;8.98;;;3.40;;
51594;SDS011;37677;53.254;6.594;2023-04-03T06:25:16;8.70;;;3.22;;
51594;SDS011;37677;53.254;6.594;2023-04-03T06:27:44;6.88;;;3.30;;
51594;SDS011;37677;53.254;6.594;2023-04-03T06:30:10;7.45;;;2.92;;
51594;SDS011;37677;53.254;6.594;2023-04-03T06:32:36;6.00;;;3.00;;
51594;SDS011;37677;53.254;6.594;2023-04-03T06:35:03;8.85;;;3.30;;
51594;SDS011;37677;53.254;6.594;2023-04-03T06:37:29;5.57;;;2.92;;
51594;SDS011;37677;53.254;6.594;2023-04-03T06:39:55;8.18;;;2.80;;
51594;SDS011;37677;53.254;6.594;2023-04-03T06:42:21;8.23;;;3.33;;
51594;SDS011;37677;53.254;6.594;2023-04-03T06:44:48;7.90;;;3.30;;
51594;SDS011;37677;53.254;6.594;2023-04-03T06:47:14;8.60;;;3.30;;
51594;SDS011;37677;53.254;6.594;2023-04-03T06:49:41;7.68;;;3.33;;
51594;SDS011;37677;53.254;6.594;2023-04-03T06:52:08;6.88;;;3.03;;
51594;SDS011;37677;53.254;6.594;2023-04-03T06:54:34;6.30;;;2.67;;
51594;SDS011;37677;53.254;6.594;2023-04-03T06:57:00;10.00;;;3.20;;
51594;SDS011;37677;53.254;6.594;2023-04-03T06:59:26;9.02;;;3.70;;
51594;SDS011;37677;53.254;6.594;2023-04-03T07:01:52;11.73;;;3.05;;
51594;SDS011;37677;53.254;6.594;2023-04-03T07:04:18;5.93;;;2.70;;
51594;SDS011;37677;53.254;6.594;2023-04-03T07:06:45;10.20;;;3.40;;
51594;SDS011;37677;53.254;6.594;2023-04-03T07:09:12;6.00;;;3.10;;
51594;SDS011;37677;53.254;6.594;2023-04-03T07:11:38;10.23;;;3.28;;
51594;SDS011;37677;53.254;6.594;2023-04-03T07:14:05;9.43;;;3.58;;
51594;SDS011;37677;53.254;6.594;2023-04-03T07:16:32;6.40;;;3.33;;
51594;SDS011;37677;53.254;6.594;2023-04-03T07:19:01;7.15;;;3.05;;
51594;SDS011;37677;53.254;6.594;2023-04-03T07:21:28;7.18;;;3.17;;
51594;SDS011;37677;53.254;6.594;2023-04-03T07:23:54;10.20;;;3.45;;
51594;SDS011;37677;53.254;6.594;2023-04-03T07:26:20;9.63;;;3.35;;
51594;SDS011;37677;53.254;6.594;2023-04-03T07:28:47;8.35;;;3.38;;
51594;SDS011;37677;53.254;6.594;2023-04-03T07:31:13;10.60;;;3.60;;
51594;SDS011;37677;53.254;6.594;2023-04-03T07:33:40;6.18;;;3.20;;
51594;SDS011;37677;53.254;6.594;2023-04-03T07:36:06;9.07;;;3.00;;
51594;SDS011;37677;53.254;6.594;2023-04-03T07:38:33;8.30;;;3.03;;
51594;SDS011;37677;53.254;6.594;2023-04-03T07:41:00;6.80;;;2.83;;
51594;SDS011;37677;53.254;6.594;2023-04-03T07:43:26;8.93;;;3.20;;
51594;SDS011;37677;53.254;6.594;2023-04-03T07:45:52;5.35;;;2.60;;
51594;SDS011;37677;53.254;6.594;2023-04-03T07:48:23;8.00;;;2.97;;
51594;SDS011;37677;53.254;6.594;2023-04-03T07:50:50;7.05;;;2.50;;
51594;SDS011;37677;53.254;6.594;2023-04-03T07:53:17;8.20;;;2.75;;
51594;SDS011;37677;53.254;6.594;2023-04-03T07:55:43;6.75;;;2.40;;
51594;SDS011;37677;53.254;6.594;2023-04-03T07:58:12;5.72;;;2.67;;
51594;SDS011;37677;53.254;6.594;2023-04-03T08:00:40;6.07;;;2.95;;
51594;SDS011;37677;53.254;6.594;2023-04-03T08:03:06;6.30;;;3.00;;
51594;SDS011;37677;53.254;6.594;2023-04-03T08:05:37;6.03;;;2.85;;
51594;SDS011;37677;53.254;6.594;2023-04-03T08:08:05;5.40;;;2.60;;
51594;SDS011;37677;53.254;6.594;2023-04-03T08:10:31;6.15;;;2.45;;
51594;SDS011;37677;53.254;6.594;2023-04-03T08:12:58;4.03;;;2.42;;
51594;SDS011;37677;53.254;6.594;2023-04-03T08:15:24;5.80;;;2.40;;
51594;SDS011;37677;53.254;6.594;2023-04-03T08:17:50;5.95;;;2.53;;
51594;SDS011;37677;53.254;6.594;2023-04-03T08:20:16;7.03;;;2.85;;
51594;SDS011;37677;53.254;6.594;2023-04-03T08:22:42;6.35;;;3.00;;
51594;SDS011;37677;53.254;6.594;2023-04-03T08:25:08;6.95;;;2.92;;
51594;SDS011;37677;53.254;6.594;2023-04-03T08:27:34;6.55;;;2.60;;
51594;SDS011;37677;53.254;6.594;2023-04-03T08:30:00;6.10;;;2.45;;
51594;SDS011;37677;53.254;6.594;2023-04-03T08:32:26;5.00;;;2.28;;
51594;SDS011;37677;53.254;6.594;2023-04-03T08:34:52;7.00;;;3.10;;
51594;SDS011;37677;53.254;6.594;2023-04-03T08:37:18;6.05;;;2.70;;
51594;SDS011;37677;53.254;6.594;2023-04-03T08:39:44;5.85;;;2.45;;
51594;SDS011;37677;53.254;6.594;2023-04-03T08:42:26;5.35;;;2.13;;
51594;SDS011;37677;53.254;6.594;2023-04-03T08:50:43;8.27;;;2.70;;
51594;SDS011;37677;53.254;6.594;2023-04-03T08:53:18;4.72;;;2.08;;
51594;SDS011;37677;53.254;6.594;2023-04-03T08:55:47;7.10;;;2.25;;
51594;SDS011;37677;53.254;6.594;2023-04-03T08:58:19;5.43;;;2.17;;
51594;SDS011;37677;53.254;6.594;2023-04-03T09:00:56;5.20;;;2.38;;
51594;SDS011;37677;53.254;6.594;2023-04-03T09:03:44;5.53;;;2.35;;
51594;SDS011;37677;53.254;6.594;2023-04-03T09:06:11;4.60;;;1.67;;
51594;SDS011;37677;53.254;6.594;2023-04-03T09:09:07;3.30;;;1.92;;
51594;SDS011;37677;53.254;6.594;2023-04-03T09:14:18;4.22;;;2.30;;
51594;SDS011;37677;53.254;6.594;2023-04-03T09:17:00;3.05;;;1.70;;
51594;SDS011;37677;53.254;6.594;2023-04-03T09:19:49;4.40;;;1.70;;
51594;SDS011;37677;53.254;6.594;2023-04-03T09:22:28;4.38;;;1.73;;
51594;SDS011;37677;53.254;6.594;2023-04-03T09:30:16;2.72;;;1.60;;
51594;SDS011;37677;53.254;6.594;2023-04-03T09:32:45;4.20;;;1.80;;
51594;SDS011;37677;53.254;6.594;2023-04-03T09:37:51;3.60;;;1.63;;
51594;SDS011;37677;53.254;6.594;2023-04-03T09:42:55;3.70;;;1.70;;
51594;SDS011;37677;53.254;6.594;2023-04-03T09:45:30;3.10;;;1.67;;
51594;SDS011;37677;53.254;6.594;2023-04-03T09:48:06;4.45;;;1.80;;
51594;SDS011;37677;53.254;6.594;2023-04-03T09:50:41;3.95;;;1.52;;
51594;SDS011;37677;53.254;6.594;2023-04-03T09:58:42;4.00;;;1.92;;
51594;SDS011;37677;53.254;6.594;2023-04-03T10:01:26;4.07;;;1.88;;
51594;SDS011;37677;53.254;6.594;2023-04-03T10:06:56;4.30;;;1.75;;
51594;SDS011;37677;53.254;6.594;2023-04-03T10:14:34;4.70;;;1.70;;
51594;SDS011;37677;53.254;6.594;2023-04-03T10:23:00;5.07;;;1.77;;
51594;SDS011;37677;53.254;6.594;2023-04-03T10:41:39;4.80;;;1.70;;
51594;SDS011;37677;53.254;6.594;2023-04-03T10:46:40;2.92;;;1.60;;
51594;SDS011;37677;53.254;6.594;2023-04-03T10:49:13;1.98;;;1.13;;
51594;SDS011;37677;53.254;6.594;2023-04-03T11:01:50;4.70;;;1.27;;
51594;SDS011;37677;53.254;6.594;2023-04-03T11:04:17;3.80;;;1.50;;
51594;SDS011;37677;53.254;6.594;2023-04-03T11:09:26;2.30;;;1.30;;
51594;SDS011;37677;53.254;6.594;2023-04-03T11:12:00;2.97;;;1.55;;
51594;SDS011;37677;53.254;6.594;2023-04-03T11:14:28;2.80;;;1.30;;
51594;SDS011;37677;53.254;6.594;2023-04-03T11:17:08;3.17;;;1.33;;
51594;SDS011;37677;53.254;6.594;2023-04-03T11:20:22;2.90;;;1.50;;
51594;SDS011;37677;53.254;6.594;2023-04-03T11:22:43;3.30;;;1.50;;
51594;SDS011;37677;53.254;6.594;2023-04-03T11:25:23;5.13;;;1.80;;
51594;SDS011;37677;53.254;6.594;2023-04-03T11:28:00;2.83;;;1.50;;
51594;SDS011;37677;53.254;6.594;2023-04-03T11:35:42;5.30;;;1.52;;
51594;SDS011;37677;53.254;6.594;2023-04-03T11:38:31;3.63;;;1.63;;
51594;SDS011;37677;53.254;6.594;2023-04-03T11:43:32;2.90;;;1.80;;
51594;SDS011;37677;53.254;6.594;2023-04-03T11:46:00;5.55;;;1.60;;
51594;SDS011;37677;53.254;6.594;2023-04-03T11:53:37;4.15;;;1.20;;
51594;SDS011;37677;53.254;6.594;2023-04-03T12:01:46;5.38;;;1.50;;
51594;SDS011;37677;53.254;6.594;2023-04-03T12:04:15;2.80;;;1.30;;
51594;SDS011;37677;53.254;6.594;2023-04-03T12:09:22;3.10;;;1.33;;
51594;SDS011;37677;53.254;6.594;2023-04-03T12:11:48;2.05;;;1.38;;
51594;SDS011;37677;53.254;6.594;2023-04-03T12:14:15;4.10;;;1.15;;
51594;SDS011;37677;53.254;6.594;2023-04-03T12:16:45;3.10;;;1.23;;
51594;SDS011;37677;53.254;6.594;2023-04-03T12:24:30;3.53;;;1.50;;
51594;SDS011;37677;53.254;6.594;2023-04-03T12:29:33;2.40;;;1.40;;
51594;SDS011;37677;53.254;6.594;2023-04-03T12:37:51;3.05;;;1.67;;
51594;SDS011;37677;53.254;6.594;2023-04-03T12:46:19;3.10;;;1.55;;
51594;SDS011;37677;53.254;6.594;2023-04-03T12:48:54;3.95;;;1.70;;
51594;SDS011;37677;53.254;6.594;2023-04-03T12:57:09;2.70;;;1.50;;
51594;SDS011;37677;53.254;6.594;2023-04-03T13:00:18;3.20;;;1.90;;
51594;SDS011;37677;53.254;6.594;2023-04-03T13:02:46;4.00;;;1.52;;
51594;SDS011;37677;53.254;6.594;2023-04-03T13:05:17;3.42;;;1.48;;
51594;SDS011;37677;53.254;6.594;2023-04-03T13:07:44;3.60;;;1.30;;
51594;SDS011;37677;53.254;6.594;2023-04-03T13:10:17;2.25;;;1.20;;
51594;SDS011;37677;53.254;6.594;2023-04-03T13:12:52;7.00;;;1.55;;
51594;SDS011;37677;53.254;6.594;2023-04-03T13:15:23;5.18;;;1.40;;
51594;SDS011;37677;53.254;6.594;2023-04-03T13:17:54;2.65;;;1.55;;
51594;SDS011;37677;53.254;6.594;2023-04-03T13:20:34;3.90;;;1.40;;
51594;SDS011;37677;53.254;6.594;2023-04-03T13:25:31;3.30;;;1.42;;
51594;SDS011;37677;53.254;6.594;2023-04-03T13:27:59;3.17;;;1.42;;
51594;SDS011;37677;53.254;6.594;2023-04-03T13:30:31;2.63;;;1.30;;
51594;SDS011;37677;53.254;6.594;2023-04-03T13:33:00;4.45;;;1.80;;
51594;SDS011;37677;53.254;6.594;2023-04-03T13:35:47;4.40;;;1.55;;
51594;SDS011;37677;53.254;6.594;2023-04-03T13:40:49;4.43;;;2.08;;
51594;SDS011;37677;53.254;6.594;2023-04-03T13:43:18;3.85;;;1.90;;
51594;SDS011;37677;53.254;6.594;2023-04-03T13:45:55;4.03;;;1.85;;
51594;SDS011;37677;53.254;6.594;2023-04-03T13:48:35;4.03;;;1.67;;
51594;SDS011;37677;53.254;6.594;2023-04-03T13:51:22;3.03;;;1.77;;
51594;SDS011;37677;53.254;6.594;2023-04-03T13:53:50;4.60;;;1.80;;
51594;SDS011;37677;53.254;6.594;2023-04-03T13:56:32;3.50;;;1.75;;
51594;SDS011;37677;53.254;6.594;2023-04-03T13:59:25;4.07;;;1.63;;
51594;SDS011;37677;53.254;6.594;2023-04-03T14:01:54;6.63;;;2.20;;
51594;SDS011;37677;53.254;6.594;2023-04-03T14:07:10;4.65;;;2.10;;
51594;SDS011;37677;53.254;6.594;2023-04-03T14:09:38;4.30;;;2.15;;
51594;SDS011;37677;53.254;6.594;2023-04-03T14:17:27;5.47;;;1.65;;
51594;SDS011;37677;53.254;6.594;2023-04-03T14:19:53;4.55;;;2.00;;
51594;SDS011;37677;53.254;6.594;2023-04-03T14:24:48;2.20;;;1.23;;
51594;SDS011;37677;53.254;6.594;2023-04-03T14:29:48;3.08;;;1.40;;
51594;SDS011;37677;53.254;6.594;2023-04-03T14:32:16;6.82;;;1.55;;
51594;SDS011;37677;53.254;6.594;2023-04-03T14:34:44;2.33;;;1.45;;
51594;SDS011;37677;53.254;6.594;2023-04-03T14:37:11;4.43;;;1.70;;
51594;SDS011;37677;53.254;6.594;2023-04-03T14:39:39;6.10;;;1.75;;
51594;SDS011;37677;53.254;6.594;2023-04-03T14:42:05;3.58;;;1.33;;
51594;SDS011;37677;53.254;6.594;2023-04-03T14:44:31;4.00;;;1.60;;
51594;SDS011;37677;53.254;6.594;2023-04-03T14:46:58;7.35;;;1.50;;
51594;SDS011;37677;53.254;6.594;2023-04-03T14:49:25;5.07;;;1.70;;
51594;SDS011;37677;53.254;6.594;2023-04-03T14:51:55;4.85;;;1.70;;
51594;SDS011;37677;53.254;6.594;2023-04-03T14:54:22;6.28;;;1.83;;
51594;SDS011;37677;53.254;6.594;2023-04-03T14:56:53;5.10;;;1.58;;
51594;SDS011;37677;53.254;6.594;2023-04-03T14:59:20;5.55;;;1.33;;
51594;SDS011;37677;53.254;6.594;2023-04-03T15:01:47;4.10;;;1.77;;
51594;SDS011;37677;53.254;6.594;2023-04-03T15:04:14;3.65;;;1.58;;
51594;SDS011;37677;53.254;6.594;2023-04-03T15:06:45;2.75;;;1.42;;
51594;SDS011;37677;53.254;6.594;2023-04-03T15:09:15;3.78;;;1.67;;
51594;SDS011;37677;53.254;6.594;2023-04-03T15:11:49;2.05;;;1.20;;
51594;SDS011;37677;53.254;6.594;2023-04-03T15:14:16;2.60;;;1.30;;
51594;SDS011;37677;53.254;6.594;2023-04-03T15:16:42;2.63;;;1.23;;
51594;SDS011;37677;53.254;6.594;2023-04-03T15:19:09;3.70;;;1.27;;
51594;SDS011;37677;53.254;6.594;2023-04-03T15:21:35;3.10;;;1.40;;
51594;SDS011;37677;53.254;6.594;2023-04-03T15:24:01;3.42;;;1.58;;
51594;SDS011;37677;53.254;6.594;2023-04-03T15:26:27;5.18;;;1.33;;
51594;SDS011;37677;53.254;6.594;2023-04-03T15:28:52;2.85;;;1.40;;
51594;SDS011;37677;53.254;6.594;2023-04-03T15:31:18;4.18;;;1.83;;
51594;SDS011;37677;53.254;6.594;2023-04-03T15:33:44;6.10;;;1.80;;
51594;SDS011;37677;53.254;6.594;2023-04-03T15:36:09;2.65;;;1.55;;
51594;SDS011;37677;53.254;6.594;2023-04-03T15:38:35;5.50;;;2.00;;
51594;SDS011;37677;53.254;6.594;2023-04-03T15:41:03;4.88;;;1.52;;
51594;SDS011;37677;53.254;6.594;2023-04-03T15:43:29;5.43;;;1.38;;
51594;SDS011;37677;53.254;6.594;2023-04-03T15:45:56;5.40;;;1.52;;
51594;SDS011;37677;53.254;6.594;2023-04-03T15:48:23;4.30;;;2.00;;
51594;SDS011;37677;53.254;6.594;2023-04-03T15:50:49;3.75;;;1.50;;
51594;SDS011;37677;53.254;6.594;2023-04-03T15:53:15;3.58;;;1.83;;
51594;SDS011;37677;53.254;6.594;2023-04-03T15:55:40;6.30;;;1.77;;
51594;SDS011;37677;53.254;6.594;2023-04-03T15:58:07;4.07;;;1.42;;
51594;SDS011;37677;53.254;6.594;2023-04-03T16:00:33;3.83;;;1.50;;
51594;SDS011;37677;53.254;6.594;2023-04-03T16:03:11;4.90;;;1.45;;
51594;SDS011;37677;53.254;6.594;2023-04-03T16:05:40;3.58;;;1.50;;
51594;SDS011;37677;53.254;6.594;2023-04-03T16:08:06;2.42;;;1.33;;
51594;SDS011;37677;53.254;6.594;2023-04-03T16:10:33;4.60;;;1.85;;
51594;SDS011;37677;53.254;6.594;2023-04-03T16:13:00;4.45;;;1.95;;
51594;SDS011;37677;53.254;6.594;2023-04-03T16:15:26;5.22;;;1.92;;
51594;SDS011;37677;53.254;6.594;2023-04-03T16:17:53;3.78;;;1.90;;
51594;SDS011;37677;53.254;6.594;2023-04-03T16:20:19;3.35;;;1.65;;
51594;SDS011;37677;53.254;6.594;2023-04-03T16:22:46;6.43;;;1.80;;
51594;SDS011;37677;53.254;6.594;2023-04-03T16:25:13;5.65;;;1.65;;
51594;SDS011;37677;53.254;6.594;2023-04-03T16:27:39;4.45;;;2.00;;
51594;SDS011;37677;53.254;6.594;2023-04-03T16:30:06;5.13;;;1.73;;
51594;SDS011;37677;53.254;6.594;2023-04-03T16:32:32;4.60;;;1.67;;
51594;SDS011;37677;53.254;6.594;2023-04-03T16:34:59;3.50;;;1.92;;
51594;SDS011;37677;53.254;6.594;2023-04-03T16:37:25;3.63;;;1.83;;
51594;SDS011;37677;53.254;6.594;2023-04-03T16:39:51;4.05;;;1.48;;
51594;SDS011;37677;53.254;6.594;2023-04-03T16:42:17;5.47;;;2.05;;
51594;SDS011;37677;53.254;6.594;2023-04-03T16:44:43;4.13;;;1.80;;
51594;SDS011;37677;53.254;6.594;2023-04-03T16:47:08;8.32;;;1.90;;
51594;SDS011;37677;53.254;6.594;2023-04-03T16:49:34;4.85;;;1.95;;
51594;SDS011;37677;53.254;6.594;2023-04-03T16:52:01;6.28;;;2.10;;
51594;SDS011;37677;53.254;6.594;2023-04-03T16:54:27;4.13;;;1.70;;
51594;SDS011;37677;53.254;6.594;2023-04-03T16:56:53;4.43;;;1.38;;
51594;SDS011;37677;53.254;6.594;2023-04-03T16:59:19;2.55;;;1.30;;
51594;SDS011;37677;53.254;6.594;2023-04-03T17:01:45;5.47;;;1.70;;
51594;SDS011;37677;53.254;6.594;2023-04-03T17:04:11;6.80;;;2.00;;
51594;SDS011;37677;53.254;6.594;2023-04-03T17:06:37;3.95;;;1.80;;
51594;SDS011;37677;53.254;6.594;2023-04-03T17:09:04;5.30;;;1.60;;